sensor_id;sensor_type;location;lat;lon;timestamp;pressure;altitude;pressure_sealevel;temperature;humidity
72024;BME280;59889;50.700;5.440;2024-03-02T00:00:09;98305.03;;;20.43;33.35
72024;BME280;59889;50.700;5.440;2024-03-02T00:02:33;98313.95;;;20.61;33.41
72024;BME280;59889;50.700;5.440;2024-03-02T00:04:58;98314.85;;;20.46;33.29
72024;BME280;59889;50.700;5.440;2024-03-02T00:07:23;98322.58;;;20.71;33.29
72024;BME280;59889;50.700;5.440;2024-03-02T00:09:53;98327.12;;;20.63;33.39
72024;BME280;59889;50.700;5.440;2024-03-02T00:12:15;98332.74;;;20.50;33.27
72024;BME280;59889;50.700;5.440;2024-03-02T00:14:39;98339.73;;;20.39;33.40
72024;BME280;59889;50.700;5.440;2024-03-02T00:17:05;98356.80;;;20.44;33.35
72024;BME280;59889;50.700;5.440;2024-03-02T00:19:30;98363.28;;;20.42;33.38
72024;BME280;59889;50.700;5.440;2024-03-02T00:21:55;98384.63;;;20.33;33.50
72024;BME280;59889;50.700;5.440;2024-03-02T00:24:24;98391.69;;;20.74;33.32
72024;BME280;59889;50.700;5.440;2024-03-02T00:26:46;98394.92;;;20.36;33.49
72024;BME280;59889;50.700;5.440;2024-03-02T00:29:15;98396.00;;;20.63;33.43
72024;BME280;59889;50.700;5.440;2024-03-02T00:31:36;98403.03;;;20.62;33.45
72024;BME280;59889;50.700;5.440;2024-03-02T00:34:05;98409.80;;;20.71;33.33
72024;BME280;59889;50.700;5.440;2024-03-02T00:36:27;98396.64;;;20.43;33.40
72024;BME280;59889;50.700;5.440;2024-03-02T00:38:53;98393.37;;;20.44;33.38
72024;BME280;59889;50.700;5.440;2024-03-02T00:41:21;98396.70;;;20.40;33.43
72024;BME280;59889;50.700;5.440;2024-03-02T00:43:45;98403.08;;;20.41;33.45
72024;BME280;59889;50.700;5.440;2024-03-02T00:46:08;98405.05;;;20.38;33.48
72024;BME280;59889;50.700;5.440;2024-03-02T00:48:33;98411.38;;;20.62;33.47
72024;BME280;59889;50.700;5.440;2024-03-02T00:50:58;98414.76;;;20.47;33.37
72024;BME280;59889;50.700;5.440;2024-03-02T00:53:26;98417.05;;;20.34;33.52
72024;BME280;59889;50.700;5.440;2024-03-02T00:55:49;98412.48;;;20.45;33.38
72024;BME280;59889;50.700;5.440;2024-03-02T00:58:14;98412.27;;;20.82;33.25
72024;BME280;59889;50.700;5.440;2024-03-02T01:00:39;98414.25;;;20.42;33.44
72024;BME280;59889;50.700;5.440;2024-03-02T01:03:04;98420.41;;;20.55;33.28
72024;BME280;59889;50.700;5.440;2024-03-02T01:05:30;98423.15;;;20.78;33.29
72024;BME280;59889;50.700;5.440;2024-03-02T01:07:55;98426.49;;;20.56;33.28
72024;BME280;59889;50.700;5.440;2024-03-02T01:10:20;98429.71;;;20.46;33.42
72024;BME280;59889;50.700;5.440;2024-03-02T01:12:45;98435.63;;;20.47;33.40
72024;BME280;59889;50.700;5.440;2024-03-02T01:15:11;98428.60;;;20.50;33.35
72024;BME280;59889;50.700;5.440;2024-03-02T01:17:36;98437.58;;;20.23;33.40
72024;BME280;59889;50.700;5.440;2024-03-02T01:20:01;98436.19;;;20.67;33.43
72024;BME280;59889;50.700;5.440;2024-03-02T01:22:26;98438.90;;;20.43;33.44
72024;BME280;59889;50.700;5.440;2024-03-02T01:24:52;98443.04;;;20.60;33.26
72024;BME280;59889;50.700;5.440;2024-03-02T01:27:17;98443.22;;;20.45;33.42
72024;BME280;59889;50.700;5.440;2024-03-02T01:29:42;98447.51;;;20.62;33.22
72024;BME280;59889;50.700;5.440;2024-03-02T01:32:08;98445.30;;;20.41;33.48
72024;BME280;59889;50.700;5.440;2024-03-02T01:34:33;98445.41;;;20.31;33.60
72024;BME280;59889;50.700;5.440;2024-03-02T01:36:58;98445.75;;;20.43;33.47
72024;BME280;59889;50.700;5.440;2024-03-02T01:39:23;98451.76;;;20.46;33.42
72024;BME280;59889;50.700;5.440;2024-03-02T01:41:49;98457.11;;;20.39;33.49
72024;BME280;59889;50.700;5.440;2024-03-02T01:44:15;98463.14;;;20.43;33.46
72024;BME280;59889;50.700;5.440;2024-03-02T01:46:39;98449.81;;;20.48;33.41
72024;BME280;59889;50.700;5.440;2024-03-02T01:49:04;98440.23;;;20.40;33.50
72024;BME280;59889;50.700;5.440;2024-03-02T01:51:30;98442.56;;;20.41;33.49
72024;BME280;59889;50.700;5.440;2024-03-02T01:53:55;98446.64;;;20.46;33.44
72024;BME280;59889;50.700;5.440;2024-03-02T01:56:21;98439.81;;;20.52;33.37
72024;BME280;59889;50.700;5.440;2024-03-02T01:58:45;98439.27;;;20.68;33.44
72024;BME280;59889;50.700;5.440;2024-03-02T02:01:11;98440.99;;;20.66;33.48
72024;BME280;59889;50.700;5.440;2024-03-02T02:03:36;98427.79;;;20.35;33.55
72024;BME280;59889;50.700;5.440;2024-03-02T02:06:01;98420.90;;;20.39;33.53
72024;BME280;59889;50.700;5.440;2024-03-02T02:08:26;98420.14;;;20.45;33.44
72024;BME280;59889;50.700;5.440;2024-03-02T02:10:52;98422.41;;;20.38;33.52
72024;BME280;59889;50.700;5.440;2024-03-02T02:13:17;98430.24;;;20.31;33.62
72024;BME280;59889;50.700;5.440;2024-03-02T02:15:42;98420.56;;;20.48;33.44
72024;BME280;59889;50.700;5.440;2024-03-02T02:18:08;98418.16;;;20.46;33.43
72024;BME280;59889;50.700;5.440;2024-03-02T02:20:33;98425.58;;;20.66;33.48
72024;BME280;59889;50.700;5.440;2024-03-02T02:22:59;98420.47;;;20.46;33.43
72024;BME280;59889;50.700;5.440;2024-03-02T02:25:23;98416.67;;;20.45;33.44
72024;BME280;59889;50.700;5.440;2024-03-02T02:27:49;98410.66;;;20.32;33.32
72024;BME280;59889;50.700;5.440;2024-03-02T02:30:18;98419.70;;;20.45;33.46
72024;BME280;59889;50.700;5.440;2024-03-02T02:32:39;98425.96;;;20.23;33.43
72024;BME280;59889;50.700;5.440;2024-03-02T02:35:06;98425.43;;;20.56;33.32
72024;BME280;59889;50.700;5.440;2024-03-02T02:37:30;98423.95;;;20.61;33.28
72024;BME280;59889;50.700;5.440;2024-03-02T02:39:55;98411.13;;;20.47;33.41
72024;BME280;59889;50.700;5.440;2024-03-02T02:42:20;98413.05;;;20.50;33.39
72024;BME280;59889;50.700;5.440;2024-03-02T02:44:45;98417.74;;;20.42;33.48
72024;BME280;59889;50.700;5.440;2024-03-02T02:47:11;98414.99;;;20.55;33.36
72024;BME280;59889;50.700;5.440;2024-03-02T02:49:36;98419.32;;;20.45;33.44
72024;BME280;59889;50.700;5.440;2024-03-02T02:52:01;98413.93;;;20.19;33.50
72024;BME280;59889;50.700;5.440;2024-03-02T02:54:26;98413.85;;;20.46;33.45
72024;BME280;59889;50.700;5.440;2024-03-02T02:56:52;98418.19;;;20.70;33.46
72024;BME280;59889;50.700;5.440;2024-03-02T02:59:18;98405.77;;;20.31;33.62
72024;BME280;59889;50.700;5.440;2024-03-02T03:01:42;98408.24;;;20.48;33.44
72024;BME280;59889;50.700;5.440;2024-03-02T03:04:08;98408.34;;;20.36;33.58
72024;BME280;59889;50.700;5.440;2024-03-02T03:06:33;98418.22;;;20.28;33.68
72024;BME280;59889;50.700;5.440;2024-03-02T03:08:58;98421.32;;;20.31;33.64
72024;BME280;59889;50.700;5.440;2024-03-02T03:11:23;98407.85;;;20.26;33.70
72024;BME280;59889;50.700;5.440;2024-03-02T03:13:49;98392.38;;;20.31;33.65
72024;BME280;59889;50.700;5.440;2024-03-02T03:16:14;98387.93;;;20.38;33.55
72024;BME280;59889;50.700;5.440;2024-03-02T03:18:39;98391.57;;;20.65;33.54
72024;BME280;59889;50.700;5.440;2024-03-02T03:21:04;98399.21;;;20.35;33.60
72024;BME280;59889;50.700;5.440;2024-03-02T03:23:30;98405.75;;;20.53;33.68
72024;BME280;59889;50.700;5.440;2024-03-02T03:25:55;98395.38;;;20.33;33.61
72024;BME280;59889;50.700;5.440;2024-03-02T03:28:20;98379.16;;;20.35;33.58
72024;BME280;59889;50.700;5.440;2024-03-02T03:30:45;98392.26;;;20.44;33.52
72024;BME280;59889;50.700;5.440;2024-03-02T03:33:11;98404.48;;;20.39;33.55
72024;BME280;59889;50.700;5.440;2024-03-02T03:35:36;98403.77;;;20.52;33.39
72024;BME280;59889;50.700;5.440;2024-03-02T03:38:01;98398.45;;;20.54;33.36
72024;BME280;59889;50.700;5.440;2024-03-02T03:40:27;98402.66;;;20.58;33.60
72024;BME280;59889;50.700;5.440;2024-03-02T03:42:52;98404.71;;;20.21;33.48
72024;BME280;59889;50.700;5.440;2024-03-02T03:45:17;98407.23;;;20.44;33.48
72024;BME280;59889;50.700;5.440;2024-03-02T03:47:43;98405.83;;;20.44;33.49
72024;BME280;59889;50.700;5.440;2024-03-02T03:50:08;98411.76;;;20.65;33.54
72024;BME280;59889;50.700;5.440;2024-03-02T03:52:33;98417.08;;;20.32;33.37
72024;BME280;59889;50.700;5.440;2024-03-02T03:54:58;98424.69;;;20.29;33.38
72024;BME280;59889;50.700;5.440;2024-03-02T03:57:23;98422.57;;;20.45;33.48
72024;BME280;59889;50.700;5.440;2024-03-02T03:59:49;98420.59;;;20.11;33.56
72024;BME280;59889;50.700;5.440;2024-03-02T04:02:14;98417.88;;;20.74;33.41
72024;BME280;59889;50.700;5.440;2024-03-02T04:04:39;98417.38;;;20.47;33.44
72024;BME280;59889;50.700;5.440;2024-03-02T04:07:05;98423.83;;;20.40;33.55
72024;BME280;59889;50.700;5.440;2024-03-02T04:09:30;98422.23;;;20.43;33.49
72024;BME280;59889;50.700;5.440;2024-03-02T04:11:55;98415.78;;;20.46;33.44
72024;BME280;59889;50.700;5.440;2024-03-02T04:14:20;98415.38;;;20.49;33.42
72024;BME280;59889;50.700;5.440;2024-03-02T04:16:45;98414.10;;;20.54;33.36
72024;BME280;59889;50.700;5.440;2024-03-02T04:19:11;98414.93;;;20.14;33.54
72024;BME280;59889;50.700;5.440;2024-03-02T04:21:36;98419.51;;;20.45;33.44
72024;BME280;59889;50.700;5.440;2024-03-02T04:24:01;98417.20;;;20.35;33.60
72024;BME280;59889;50.700;5.440;2024-03-02T04:26:27;98410.12;;;20.42;33.51
72024;BME280;59889;50.700;5.440;2024-03-02T04:28:52;98407.12;;;20.43;33.49
72024;BME280;59889;50.700;5.440;2024-03-02T04:31:17;98406.42;;;20.57;33.61
72024;BME280;59889;50.700;5.440;2024-03-02T04:33:42;98407.43;;;20.23;33.73
72024;BME280;59889;50.700;5.440;2024-03-02T04:36:08;98413.83;;;20.34;33.61
72024;BME280;59889;50.700;5.440;2024-03-02T04:38:33;98411.90;;;20.27;33.68
72024;BME280;59889;50.700;5.440;2024-03-02T04:40:58;98414.38;;;20.11;33.60
72024;BME280;59889;50.700;5.440;2024-03-02T04:43:23;98412.03;;;20.78;33.64
72024;BME280;59889;50.700;5.440;2024-03-02T04:45:49;98413.16;;;20.29;33.66
72024;BME280;59889;50.700;5.440;2024-03-02T04:48:14;98413.68;;;20.27;33.67
72024;BME280;59889;50.700;5.440;2024-03-02T04:50:39;98418.37;;;20.18;33.76
72024;BME280;59889;50.700;5.440;2024-03-02T04:53:04;98422.44;;;20.28;33.65
72024;BME280;59889;50.700;5.440;2024-03-02T04:55:30;98423.04;;;20.18;33.76
72024;BME280;59889;50.700;5.440;2024-03-02T04:57:56;98428.15;;;20.60;33.58
72024;BME280;59889;50.700;5.440;2024-03-02T05:00:25;98430.06;;;20.33;33.63
72024;BME280;59889;50.700;5.440;2024-03-02T05:02:46;98430.01;;;20.57;33.60
72024;BME280;59889;50.700;5.440;2024-03-02T05:05:11;98428.80;;;20.28;33.65
72024;BME280;59889;50.700;5.440;2024-03-02T05:07:36;98432.85;;;20.47;33.70
72024;BME280;59889;50.700;5.440;2024-03-02T05:10:02;98432.82;;;20.43;33.74
72024;BME280;59889;50.700;5.440;2024-03-02T05:12:27;98431.57;;;20.42;33.76
72024;BME280;59889;50.700;5.440;2024-03-02T05:14:52;98429.49;;;20.37;33.82
72024;BME280;59889;50.700;5.440;2024-03-02T05:17:17;98426.76;;;20.57;33.58
72024;BME280;59889;50.700;5.440;2024-03-02T05:19:42;98434.36;;;20.07;33.89
72024;BME280;59889;50.700;5.440;2024-03-02T05:22:08;98444.65;;;20.09;33.87
72024;BME280;59889;50.700;5.440;2024-03-02T05:24:33;98449.02;;;20.20;33.74
72024;BME280;59889;50.700;5.440;2024-03-02T05:26:58;98450.55;;;20.16;33.76
72024;BME280;59889;50.700;5.440;2024-03-02T05:29:24;98452.00;;;20.32;33.59
72024;BME280;59889;50.700;5.440;2024-03-02T05:31:49;98452.14;;;20.12;33.80
72024;BME280;59889;50.700;5.440;2024-03-02T05:34:14;98453.61;;;20.17;33.76
72024;BME280;59889;50.700;5.440;2024-03-02T05:36:40;98455.74;;;20.53;33.62
72024;BME280;59889;50.700;5.440;2024-03-02T05:39:05;98452.41;;;20.22;33.71
72024;BME280;59889;50.700;5.440;2024-03-02T05:41:30;98453.06;;;20.17;33.74
72024;BME280;59889;50.700;5.440;2024-03-02T05:43:56;98459.03;;;20.30;33.60
72024;BME280;59889;50.700;5.440;2024-03-02T05:46:21;98454.58;;;20.35;33.82
72024;BME280;59889;50.700;5.440;2024-03-02T05:48:46;98459.47;;;20.33;33.82
72024;BME280;59889;50.700;5.440;2024-03-02T05:51:11;98461.60;;;20.06;33.87
72024;BME280;59889;50.700;5.440;2024-03-02T05:53:36;98461.38;;;20.30;33.88
72024;BME280;59889;50.700;5.440;2024-03-02T05:56:02;98463.02;;;20.23;33.94
72024;BME280;59889;50.700;5.440;2024-03-02T05:58:27;98464.96;;;20.10;33.85
72024;BME280;59889;50.700;5.440;2024-03-02T06:00:52;98468.30;;;20.34;33.82
72024;BME280;59889;50.700;5.440;2024-03-02T06:03:17;98470.99;;;20.07;33.87
72024;BME280;59889;50.700;5.440;2024-03-02T06:05:43;98467.23;;;20.07;33.87
72024;BME280;59889;50.700;5.440;2024-03-02T06:08:08;98465.57;;;20.08;33.83
72024;BME280;59889;50.700;5.440;2024-03-02T06:10:35;98460.05;;;20.37;33.59
72024;BME280;59889;50.700;5.440;2024-03-02T06:12:59;98456.02;;;19.99;33.44
72024;BME280;59889;50.700;5.440;2024-03-02T06:15:24;98458.67;;;20.17;33.36
72024;BME280;59889;50.700;5.440;2024-03-02T06:17:49;98460.75;;;20.33;33.23
72024;BME280;59889;50.700;5.440;2024-03-02T06:20:14;98464.29;;;20.44;32.98
72024;BME280;59889;50.700;5.440;2024-03-02T06:22:40;98469.64;;;19.91;33.06
72024;BME280;59889;50.700;5.440;2024-03-02T06:25:05;98473.34;;;19.97;32.82
72024;BME280;59889;50.700;5.440;2024-03-02T06:27:30;98474.89;;;20.19;32.78
72024;BME280;59889;50.700;5.440;2024-03-02T06:29:56;98476.23;;;20.11;32.70
72024;BME280;59889;50.700;5.440;2024-03-02T06:32:21;98480.53;;;20.03;32.65
72024;BME280;59889;50.700;5.440;2024-03-02T06:34:46;98481.81;;;20.27;32.62
72024;BME280;59889;50.700;5.440;2024-03-02T06:37:11;98480.85;;;19.78;32.39
72024;BME280;59889;50.700;5.440;2024-03-02T06:39:37;98486.46;;;19.99;32.45
72024;BME280;59889;50.700;5.440;2024-03-02T06:42:02;98486.91;;;19.95;32.44
72024;BME280;59889;50.700;5.440;2024-03-02T06:44:27;98493.67;;;19.95;32.24
72024;BME280;59889;50.700;5.440;2024-03-02T06:46:52;98497.33;;;20.28;32.16
72024;BME280;59889;50.700;5.440;2024-03-02T06:49:18;98502.99;;;20.18;32.09
72024;BME280;59889;50.700;5.440;2024-03-02T06:51:43;98502.35;;;20.49;31.72
72024;BME280;59889;50.700;5.440;2024-03-02T06:54:08;98503.55;;;20.10;31.49
72024;BME280;59889;50.700;5.440;2024-03-02T06:56:33;98506.74;;;20.57;31.09
72024;BME280;59889;50.700;5.440;2024-03-02T06:58:59;98500.80;;;20.76;30.22
72024;BME280;59889;50.700;5.440;2024-03-02T07:01:24;98502.06;;;21.54;29.79
72024;BME280;59889;50.700;5.440;2024-03-02T07:03:49;98499.19;;;21.68;29.38
72024;BME280;59889;50.700;5.440;2024-03-02T07:06:15;98498.85;;;21.63;29.25
72024;BME280;59889;50.700;5.440;2024-03-02T07:08:40;98501.73;;;21.24;29.82
72024;BME280;59889;50.700;5.440;2024-03-02T07:11:05;98499.71;;;20.96;30.17
72024;BME280;59889;50.700;5.440;2024-03-02T07:13:30;98503.02;;;20.70;30.36
72024;BME280;59889;50.700;5.440;2024-03-02T07:15:56;98504.66;;;20.75;30.58
72024;BME280;59889;50.700;5.440;2024-03-02T07:18:21;98509.26;;;20.32;30.59
72024;BME280;59889;50.700;5.440;2024-03-02T07:20:46;98510.77;;;20.27;30.64
72024;BME280;59889;50.700;5.440;2024-03-02T07:23:11;98509.39;;;20.10;30.85
72024;BME280;59889;50.700;5.440;2024-03-02T07:25:37;98505.50;;;20.67;30.76
72024;BME280;59889;50.700;5.440;2024-03-02T07:28:02;98503.42;;;20.15;30.83
72024;BME280;59889;50.700;5.440;2024-03-02T07:30:27;98507.21;;;20.04;30.71
72024;BME280;59889;50.700;5.440;2024-03-02T07:32:53;98505.77;;;20.57;30.26
72024;BME280;59889;50.700;5.440;2024-03-02T07:35:18;98505.90;;;20.42;30.17
72024;BME280;59889;50.700;5.440;2024-03-02T07:37:43;98508.10;;;20.44;30.20
72024;BME280;59889;50.700;5.440;2024-03-02T07:40:10;98508.88;;;20.49;29.92
72024;BME280;59889;50.700;5.440;2024-03-02T07:42:34;98507.80;;;21.10;29.25
72024;BME280;59889;50.700;5.440;2024-03-02T07:44:59;98505.93;;;21.12;28.86
72024;BME280;59889;50.700;5.440;2024-03-02T07:47:24;98503.99;;;21.06;28.94
72024;BME280;59889;50.700;5.440;2024-03-02T07:49:49;98503.18;;;21.09;29.13
72024;BME280;59889;50.700;5.440;2024-03-02T07:52:15;98503.79;;;20.93;29.24
72024;BME280;59889;50.700;5.440;2024-03-02T07:54:40;98499.01;;;20.98;29.48
72024;BME280;59889;50.700;5.440;2024-03-02T07:57:06;98502.77;;;20.84;29.94
72024;BME280;59889;50.700;5.440;2024-03-02T07:59:30;98500.55;;;20.52;30.26
72024;BME280;59889;50.700;5.440;2024-03-02T08:01:56;98504.60;;;20.71;30.47
72024;BME280;59889;50.700;5.440;2024-03-02T08:04:22;98506.86;;;20.63;30.60
72024;BME280;59889;50.700;5.440;2024-03-02T08:06:46;98508.75;;;20.68;30.63
72024;BME280;59889;50.700;5.440;2024-03-02T08:09:11;98511.71;;;20.59;30.77
72024;BME280;59889;50.700;5.440;2024-03-02T08:11:36;98513.94;;;20.57;30.84
72024;BME280;59889;50.700;5.440;2024-03-02T08:14:02;98511.95;;;20.55;30.96
72024;BME280;59889;50.700;5.440;2024-03-02T08:16:27;98510.82;;;20.68;31.35
72024;BME280;59889;50.700;5.440;2024-03-02T08:18:52;98510.24;;;20.47;31.35
72024;BME280;59889;50.700;5.440;2024-03-02T08:21:18;98508.71;;;20.48;31.34
72024;BME280;59889;50.700;5.440;2024-03-02T08:23:43;98506.68;;;20.51;31.36
72024;BME280;59889;50.700;5.440;2024-03-02T08:26:09;98501.96;;;20.53;31.41
72024;BME280;59889;50.700;5.440;2024-03-02T08:28:34;98501.78;;;20.31;31.42
72024;BME280;59889;50.700;5.440;2024-03-02T08:30:58;98495.61;;;20.43;31.58
72024;BME280;59889;50.700;5.440;2024-03-02T08:33:24;98504.37;;;20.30;31.77
72024;BME280;59889;50.700;5.440;2024-03-02T08:35:49;98501.89;;;20.59;31.60
72024;BME280;59889;50.700;5.440;2024-03-02T08:38:19;98511.14;;;20.44;31.82
72024;BME280;59889;50.700;5.440;2024-03-02T08:40:39;98508.54;;;20.67;31.93
72024;BME280;59889;50.700;5.440;2024-03-02T08:43:05;98511.19;;;20.57;31.87
72024;BME280;59889;50.700;5.440;2024-03-02T08:45:30;98511.97;;;20.68;31.90
72024;BME280;59889;50.700;5.440;2024-03-02T08:47:55;98516.20;;;20.49;32.19
72024;BME280;59889;50.700;5.440;2024-03-02T08:50:21;98515.54;;;20.46;32.25
72024;BME280;59889;50.700;5.440;2024-03-02T08:52:46;98520.35;;;20.47;32.27
72024;BME280;59889;50.700;5.440;2024-03-02T08:55:11;98515.70;;;20.46;32.30
72024;BME280;59889;50.700;5.440;2024-03-02T08:57:36;98519.87;;;20.89;32.34
72024;BME280;59889;50.700;5.440;2024-03-02T09:00:02;98521.70;;;20.45;32.33
72024;BME280;59889;50.700;5.440;2024-03-02T09:02:27;98522.16;;;20.43;32.37
72024;BME280;59889;50.700;5.440;2024-03-02T09:04:52;98527.18;;;20.48;32.34
72024;BME280;59889;50.700;5.440;2024-03-02T09:07:18;98532.11;;;20.48;32.34
72024;BME280;59889;50.700;5.440;2024-03-02T09:09:43;98538.08;;;20.50;32.31
72024;BME280;59889;50.700;5.440;2024-03-02T09:12:08;98536.17;;;20.56;32.27
72024;BME280;59889;50.700;5.440;2024-03-02T09:14:34;98537.45;;;20.31;32.27
72024;BME280;59889;50.700;5.440;2024-03-02T09:16:59;98531.17;;;20.24;32.35
72024;BME280;59889;50.700;5.440;2024-03-02T09:19:24;98524.32;;;20.48;32.36
72024;BME280;59889;50.700;5.440;2024-03-02T09:21:49;98522.80;;;20.35;32.52
72024;BME280;59889;50.700;5.440;2024-03-02T09:24:14;98523.91;;;20.47;32.39
72024;BME280;59889;50.700;5.440;2024-03-02T09:26:40;98527.78;;;20.44;32.45
72024;BME280;59889;50.700;5.440;2024-03-02T09:29:05;98526.79;;;20.32;32.56
72024;BME280;59889;50.700;5.440;2024-03-02T09:31:30;98529.95;;;20.36;32.53
72024;BME280;59889;50.700;5.440;2024-03-02T09:33:56;98528.32;;;20.33;32.56
72024;BME280;59889;50.700;5.440;2024-03-02T09:36:22;98524.53;;;20.42;32.48
72024;BME280;59889;50.700;5.440;2024-03-02T09:38:46;98527.08;;;20.43;32.47
72024;BME280;59889;50.700;5.440;2024-03-02T09:41:12;98527.27;;;20.37;32.53
72024;BME280;59889;50.700;5.440;2024-03-02T09:43:37;98525.91;;;20.41;32.51
72024;BME280;59889;50.700;5.440;2024-03-02T09:46:02;98527.21;;;20.35;32.59
72024;BME280;59889;50.700;5.440;2024-03-02T09:48:27;98530.23;;;20.43;32.51
72024;BME280;59889;50.700;5.440;2024-03-02T09:50:52;98531.28;;;20.34;32.63
72024;BME280;59889;50.700;5.440;2024-03-02T09:53:18;98531.80;;;20.31;32.68
72024;BME280;59889;50.700;5.440;2024-03-02T09:55:46;98528.60;;;20.71;32.50
72024;BME280;59889;50.700;5.440;2024-03-02T09:58:08;98521.29;;;20.62;32.59
72024;BME280;59889;50.700;5.440;2024-03-02T10:00:33;98513.36;;;20.36;32.63
72024;BME280;59889;50.700;5.440;2024-03-02T10:02:59;98508.80;;;20.30;32.69
72024;BME280;59889;50.700;5.440;2024-03-02T10:05:25;98505.47;;;20.33;32.67
72024;BME280;59889;50.700;5.440;2024-03-02T10:07:58;98502.83;;;20.30;32.70
72024;BME280;59889;50.700;5.440;2024-03-02T10:10:16;98504.29;;;20.17;32.87
72024;BME280;59889;50.700;5.440;2024-03-02T10:12:40;98497.56;;;20.37;32.67
72024;BME280;59889;50.700;5.440;2024-03-02T10:15:06;98490.82;;;20.36;32.73
72024;BME280;59889;50.700;5.440;2024-03-02T10:17:31;98489.33;;;20.76;32.56
72024;BME280;59889;50.700;5.440;2024-03-02T10:19:56;98487.78;;;20.30;32.87
72024;BME280;59889;50.700;5.440;2024-03-02T10:22:23;98490.65;;;20.75;32.84
72024;BME280;59889;50.700;5.440;2024-03-02T10:24:47;98483.15;;;20.57;32.79
72024;BME280;59889;50.700;5.440;2024-03-02T10:27:16;98488.26;;;20.64;32.88
72024;BME280;59889;50.700;5.440;2024-03-02T10:29:38;98490.50;;;20.61;33.00
72024;BME280;59889;50.700;5.440;2024-03-02T10:32:03;98486.52;;;20.56;33.23
72024;BME280;59889;50.700;5.440;2024-03-02T10:34:27;98482.58;;;20.39;33.25
72024;BME280;59889;50.700;5.440;2024-03-02T10:36:53;98486.80;;;20.45;33.38
72024;BME280;59889;50.700;5.440;2024-03-02T10:39:18;98476.41;;;20.68;33.52
72024;BME280;59889;50.700;5.440;2024-03-02T10:41:43;98482.00;;;20.65;33.74
72024;BME280;59889;50.700;5.440;2024-03-02T10:44:09;98480.20;;;20.61;33.87
72024;BME280;59889;50.700;5.440;2024-03-02T10:46:35;98473.54;;;20.68;33.96
72024;BME280;59889;50.700;5.440;2024-03-02T10:49:02;98478.02;;;20.27;34.38
72024;BME280;59889;50.700;5.440;2024-03-02T10:51:24;98469.01;;;20.73;34.10
72024;BME280;59889;50.700;5.440;2024-03-02T10:53:50;98469.16;;;20.69;34.36
72024;BME280;59889;50.700;5.440;2024-03-02T10:56:19;98458.85;;;20.73;34.43
72024;BME280;59889;50.700;5.440;2024-03-02T10:58:40;98458.70;;;20.75;34.43
72024;BME280;59889;50.700;5.440;2024-03-02T11:01:07;98461.91;;;20.71;34.62
72024;BME280;59889;50.700;5.440;2024-03-02T11:03:35;98454.49;;;20.80;34.43
72024;BME280;59889;50.700;5.440;2024-03-02T11:05:57;98451.91;;;20.82;34.34
72024;BME280;59889;50.700;5.440;2024-03-02T11:08:22;98447.99;;;20.63;34.62
72024;BME280;59889;50.700;5.440;2024-03-02T11:10:50;98449.03;;;20.74;34.20
72024;BME280;59889;50.700;5.440;2024-03-02T11:13:12;98442.51;;;20.65;33.84
72024;BME280;59889;50.700;5.440;2024-03-02T11:15:40;98444.22;;;20.59;33.80
72024;BME280;59889;50.700;5.440;2024-03-02T11:18:04;98443.53;;;20.55;33.54
72024;BME280;59889;50.700;5.440;2024-03-02T11:20:28;98443.32;;;20.29;33.55
72024;BME280;59889;50.700;5.440;2024-03-02T11:22:53;98440.49;;;20.75;34.07
72024;BME280;59889;50.700;5.440;2024-03-02T11:25:24;98440.44;;;20.75;34.44
72024;BME280;59889;50.700;5.440;2024-03-02T11:28:00;98434.58;;;20.43;34.67
72024;BME280;59889;50.700;5.440;2024-03-02T11:30:10;98432.25;;;20.50;34.53
72024;BME280;59889;50.700;5.440;2024-03-02T11:32:34;98425.59;;;20.40;34.54
72024;BME280;59889;50.700;5.440;2024-03-02T11:34:59;98425.51;;;20.55;34.27
72024;BME280;59889;50.700;5.440;2024-03-02T11:37:24;98422.20;;;20.45;34.40
72024;BME280;59889;50.700;5.440;2024-03-02T11:39:50;98420.65;;;20.44;34.40
72024;BME280;59889;50.700;5.440;2024-03-02T11:42:15;98418.31;;;20.41;34.38
72024;BME280;59889;50.700;5.440;2024-03-02T11:44:46;98414.33;;;20.61;34.38
72024;BME280;59889;50.700;5.440;2024-03-02T11:47:06;98405.66;;;20.59;34.13
72024;BME280;59889;50.700;5.440;2024-03-02T11:49:37;98400.88;;;20.77;34.23
72024;BME280;59889;50.700;5.440;2024-03-02T11:52:01;98400.83;;;20.47;34.15
72024;BME280;59889;50.700;5.440;2024-03-02T11:54:21;98394.83;;;20.34;34.23
72024;BME280;59889;50.700;5.440;2024-03-02T11:56:48;98386.85;;;20.39;34.12
72024;BME280;59889;50.700;5.440;2024-03-02T11:59:13;98382.58;;;20.57;34.07
72024;BME280;59889;50.700;5.440;2024-03-02T12:01:37;98375.33;;;20.34;33.92
72024;BME280;59889;50.700;5.440;2024-03-02T12:04:03;98378.12;;;20.33;33.72
72024;BME280;59889;50.700;5.440;2024-03-02T12:06:28;98373.54;;;20.38;33.60
72024;BME280;59889;50.700;5.440;2024-03-02T12:08:53;98371.00;;;20.33;33.53
72024;BME280;59889;50.700;5.440;2024-03-02T12:11:20;98363.98;;;20.38;33.38
72024;BME280;59889;50.700;5.440;2024-03-02T12:13:52;98361.63;;;20.55;33.34
72024;BME280;59889;50.700;5.440;2024-03-02T12:16:09;98364.16;;;20.28;33.37
72024;BME280;59889;50.700;5.440;2024-03-02T12:18:34;98356.96;;;20.18;33.40
72024;BME280;59889;50.700;5.440;2024-03-02T12:21:00;98365.02;;;20.11;33.16
72024;BME280;59889;50.700;5.440;2024-03-02T12:23:26;98358.40;;;20.37;33.00
72024;BME280;59889;50.700;5.440;2024-03-02T12:25:50;98349.97;;;20.48;32.95
72024;BME280;59889;50.700;5.440;2024-03-02T12:28:15;98351.72;;;20.22;32.78
72024;BME280;59889;50.700;5.440;2024-03-02T12:30:41;98357.52;;;20.17;32.83
72024;BME280;59889;50.700;5.440;2024-03-02T12:33:07;98355.81;;;20.16;32.73
72024;BME280;59889;50.700;5.440;2024-03-02T12:35:31;98356.21;;;20.53;32.59
72024;BME280;59889;50.700;5.440;2024-03-02T12:37:56;98358.61;;;20.24;32.65
72024;BME280;59889;50.700;5.440;2024-03-02T12:40:22;98351.66;;;20.16;32.66
72024;BME280;59889;50.700;5.440;2024-03-02T12:42:47;98349.48;;;20.13;32.67
72024;BME280;59889;50.700;5.440;2024-03-02T12:45:13;98345.92;;;20.25;32.48
72024;BME280;59889;50.700;5.440;2024-03-02T12:47:39;98340.82;;;20.56;32.60